Sarah Desgagnes — XJAB — position and weather

sailwx.info

Track history (hours):
 
Tides and Currents Weather Stations Pressure Air Temp Water Temp Dewpoint Dewpoint Depression Visibility Wind Speed Wind Dir Waves Ship Positions

Sarah Desgagnes

Last reported at 2016-Feb-11 22:24 UTC. Time now 2016-Feb-13 15:15 UTC.
Position N 51°23' W 003°10'.

Length 147 m; draft 6.4 m.

Type: Tanker. MMSI: 316012308.

Date/timePositionNaut miles runAvg speedWind from/ knotsBaromVisibWave heightAir tempDewpointWater temp
2016-Feb-11 22:24N 51°23' W 003°10'4 5.0
2016-Feb-11 21:33N 51°27' W 003°09'1 0.0
2016-Feb-10 21:33N 51°28' W 003°09'1 0.7
2016-Feb-10 20:29N 51°27' W 003°09'4 2.9
2016-Feb-10 19:12N 51°24' W 003°09'  
2016-Feb-02 12:33N 50°29' W 000°18'1212.5
2016-Feb-02 11:34N 50°32' E 000°01'1211.4
2016-Feb-02 10:32N 50°36' E 000°19'1211.9
2016-Feb-02 09:34N 50°39' E 000°36'1211.8
2016-Feb-02 08:33N 50°46' E 000°52'1211.8
2016-Feb-02 07:34N 50°53' E 001°06'1111.1
2016-Feb-02 06:33N 51°00' E 001°20'1010.5
2016-Feb-02 05:34N 51°07' E 001°33'1110.8
2016-Feb-02 04:33N 51°13' E 001°47'1211.9
2016-Feb-02 03:33N 51°25' E 001°53'1212.4
2016-Feb-02 02:34N 51°34' E 002°06'1312.7
2016-Feb-02 01:33N 51°43' E 002°21'  
Track history (hours):
 
Tides and Currents Weather Stations Pressure Air Temp Water Temp Dewpoint Dewpoint Depression Visibility Wind Speed Wind Dir Waves Ship Positions

Sarah Desgagnes

Last reported at 2016-Feb-11 22:24 UTC. Time now 2016-Feb-13 15:15 UTC.
Position N 51°23' W 003°10'.

Length 147 m; draft 6.4 m.

Type: Tanker. MMSI: 316012308.

Date/timePositionNaut miles runAvg speedWind from/ knotsBaromVisibWave heightAir tempDewpointWater temp
2016-Feb-11 22:24N 51°23' W 003°10'4 5.0
2016-Feb-11 21:33N 51°27' W 003°09'1 0.0
2016-Feb-10 21:33N 51°28' W 003°09'1 0.7
2016-Feb-10 20:29N 51°27' W 003°09'4 2.9
2016-Feb-10 19:12N 51°24' W 003°09'  
2016-Feb-02 12:33N 50°29' W 000°18'1212.5
2016-Feb-02 11:34N 50°32' E 000°01'1211.4
2016-Feb-02 10:32N 50°36' E 000°19'1211.9
2016-Feb-02 09:34N 50°39' E 000°36'1211.8
2016-Feb-02 08:33N 50°46' E 000°52'1211.8
2016-Feb-02 07:34N 50°53' E 001°06'1111.1
2016-Feb-02 06:33N 51°00' E 001°20'1010.5
2016-Feb-02 05:34N 51°07' E 001°33'1110.8
2016-Feb-02 04:33N 51°13' E 001°47'1211.9
2016-Feb-02 03:33N 51°25' E 001°53'1212.4
2016-Feb-02 02:34N 51°34' E 002°06'1312.7
2016-Feb-02 01:33N 51°43' E 002°21'  

Dump ship's entire track history